createdAt,value
2024-03-28T00:00:14.808Z,92399.00
2024-03-28T00:01:14.903Z,92393.00
2024-03-28T00:02:14.941Z,92393.00
2024-03-28T00:03:15.015Z,92393.00
2024-03-28T00:04:15.064Z,92396.00
2024-03-28T00:05:15.079Z,92400.00
2024-03-28T00:06:15.125Z,92407.00
2024-03-28T00:07:15.209Z,92413.00
2024-03-28T00:08:15.200Z,92417.00
2024-03-28T00:09:15.223Z,92417.00
2024-03-28T00:10:15.292Z,92418.00
2024-03-28T00:11:15.279Z,92419.00
2024-03-28T00:12:15.326Z,92420.00
2024-03-28T00:13:15.373Z,92420.00
2024-03-28T00:14:15.402Z,92423.00
2024-03-28T00:15:15.444Z,92428.00
2024-03-28T00:16:15.490Z,92431.00
2024-03-28T00:17:15.501Z,92436.00
2024-03-28T00:18:15.538Z,92439.00
2024-03-28T00:19:16.226Z,92443.00
2024-03-28T00:20:16.608Z,92441.00
2024-03-28T00:21:15.616Z,92440.00
2024-03-28T00:22:15.640Z,92441.00
2024-03-28T00:23:15.632Z,92443.00
2024-03-28T00:24:15.618Z,92445.00
2024-03-28T00:25:15.700Z,92449.00
2024-03-28T00:26:15.613Z,92454.00
2024-03-28T00:27:15.620Z,92454.00
2024-03-28T00:28:15.660Z,92449.00
2024-03-28T00:29:15.620Z,92448.00
2024-03-28T00:30:15.608Z,92446.00
2024-03-28T00:31:15.667Z,92444.00
2024-03-28T00:32:15.706Z,92444.00
2024-03-28T00:33:18.891Z,92439.00
2024-03-28T00:34:15.804Z,92434.00
2024-03-28T00:35:15.749Z,92433.00
2024-03-28T00:36:15.743Z,92433.00
2024-03-28T00:37:15.802Z,92437.00
2024-03-28T00:38:15.770Z,92440.00
2024-03-28T00:39:15.742Z,92442.00
2024-03-28T00:40:15.759Z,92447.00
2024-03-28T00:41:15.743Z,92446.00
2024-03-28T00:42:15.752Z,92450.00
2024-03-28T00:43:15.839Z,92456.00
2024-03-28T00:44:15.782Z,92454.00
2024-03-28T00:45:15.780Z,92458.00
2024-03-28T00:46:15.795Z,92460.00
2024-03-28T00:47:15.785Z,92462.00
2024-03-28T00:48:15.763Z,92463.00
2024-03-28T00:49:15.776Z,92461.00
2024-03-28T00:50:15.785Z,92457.00
2024-03-28T00:51:15.782Z,92458.00
2024-03-28T00:52:15.800Z,92456.00
2024-03-28T00:53:15.781Z,92456.00
2024-03-28T00:54:15.798Z,92451.00
2024-03-28T00:55:15.873Z,92450.00
2024-03-28T00:56:15.804Z,92452.00
2024-03-28T00:57:15.789Z,92456.00
2024-03-28T00:58:15.814Z,92458.00
2024-03-28T00:59:15.784Z,92463.00
2024-03-28T01:00:15.805Z,92464.00
2024-03-28T01:01:15.857Z,92471.00
2024-03-28T01:02:15.823Z,92474.00
2024-03-28T01:03:15.836Z,92473.00
2024-03-28T01:04:15.885Z,92473.00
2024-03-28T01:05:15.814Z,92467.00
2024-03-28T01:06:15.825Z,92470.00
2024-03-28T01:07:15.835Z,92469.00
2024-03-28T01:08:15.824Z,92469.00
2024-03-28T01:09:15.810Z,92471.00
2024-03-28T01:10:15.850Z,92472.00
2024-03-28T01:11:15.828Z,92474.00
2024-03-28T01:12:15.819Z,92475.00
2024-03-28T01:13:15.872Z,92474.00
2024-03-28T01:14:15.803Z,92470.00
2024-03-28T01:15:15.830Z,92464.00
2024-03-28T01:16:15.850Z,92460.00
2024-03-28T01:17:15.851Z,92457.00
2024-03-28T01:18:15.827Z,92456.00
2024-03-28T01:19:15.864Z,92453.00
2024-03-28T01:20:15.817Z,92457.00
2024-03-28T01:21:15.855Z,92455.00
2024-03-28T01:22:15.866Z,92460.00
2024-03-28T01:23:15.839Z,92459.00
2024-03-28T01:24:15.828Z,92453.00
2024-03-28T01:25:15.872Z,92452.00
2024-03-28T01:26:15.849Z,92450.00
2024-03-28T01:27:15.829Z,92453.00
2024-03-28T01:28:15.860Z,92460.00
2024-03-28T01:29:15.851Z,92462.00
2024-03-28T01:30:15.845Z,92462.00
2024-03-28T01:31:15.881Z,92461.00
2024-03-28T01:32:15.853Z,92457.00
2024-03-28T01:33:15.858Z,92455.00
2024-03-28T01:34:15.950Z,92450.00
2024-03-28T01:35:15.983Z,92446.00
2024-03-28T01:36:16.013Z,92446.00
2024-03-28T01:37:16.035Z,92451.00
2024-03-28T01:38:16.102Z,92451.00
2024-03-28T01:39:16.113Z,92456.00
2024-03-28T01:40:16.187Z,92462.00
2024-03-28T01:41:16.185Z,92464.00
2024-03-28T01:42:16.220Z,92468.00
2024-03-28T01:43:16.326Z,92471.00
2024-03-28T01:44:16.305Z,92471.00
2024-03-28T01:45:16.474Z,92469.00
2024-03-28T01:46:20.035Z,92469.00
2024-03-28T01:47:35.512Z,92468.00
2024-03-28T01:48:17.604Z,92468.00
2024-03-28T01:49:16.551Z,92463.00
2024-03-28T01:50:16.546Z,92460.00
2024-03-28T01:51:16.566Z,92458.00
2024-03-28T01:52:16.591Z,92456.00
2024-03-28T01:53:16.565Z,92457.00
2024-03-28T01:54:16.647Z,92458.00
2024-03-28T01:55:16.590Z,92461.00
2024-03-28T01:56:16.580Z,92459.00
2024-03-28T01:57:16.545Z,92459.00
2024-03-28T01:58:16.572Z,92458.00
2024-03-28T01:59:16.587Z,92460.00
2024-03-28T02:00:16.561Z,92461.00
2024-03-28T02:01:16.604Z,92460.00
2024-03-28T02:02:16.589Z,92456.00
2024-03-28T02:03:16.595Z,92453.00
2024-03-28T02:04:16.637Z,92448.00
2024-03-28T02:05:16.592Z,92448.00
2024-03-28T02:06:16.576Z,92446.00
2024-03-28T02:07:16.621Z,92445.00
2024-03-28T02:08:16.598Z,92444.00
2024-03-28T02:09:16.592Z,92443.00
2024-03-28T02:10:16.637Z,92443.00
2024-03-28T02:11:16.616Z,92445.00
2024-03-28T02:12:16.604Z,92450.00
2024-03-28T02:13:16.617Z,92448.00
2024-03-28T02:14:16.596Z,92449.00
2024-03-28T02:15:16.594Z,92447.00
2024-03-28T02:16:16.612Z,92450.00
2024-03-28T02:17:16.608Z,92456.00
2024-03-28T02:18:16.610Z,92458.00
2024-03-28T02:19:16.635Z,92461.00
2024-03-28T02:20:16.639Z,92458.00
2024-03-28T02:21:16.633Z,92455.00
2024-03-28T02:22:16.664Z,92454.00
2024-03-28T02:23:16.604Z,92449.00
2024-03-28T02:24:16.617Z,92451.00
2024-03-28T02:25:16.695Z,92450.00
2024-03-28T02:26:16.718Z,92457.00
2024-03-28T02:27:16.727Z,92459.00
2024-03-28T02:28:16.832Z,92459.00
2024-03-28T02:29:16.852Z,92459.00
2024-03-28T02:30:16.894Z,92459.00
2024-03-28T02:31:16.990Z,92460.00
2024-03-28T02:32:16.994Z,92460.00
2024-03-28T02:33:17.057Z,92458.00
2024-03-28T02:34:17.128Z,92459.00
2024-03-28T02:35:17.138Z,92461.00
2024-03-28T02:36:17.140Z,92463.00
2024-03-28T02:37:17.177Z,92468.00
2024-03-28T02:38:17.252Z,92465.00
2024-03-28T02:39:17.316Z,92469.00
2024-03-28T02:40:17.353Z,92464.00
2024-03-28T02:41:17.399Z,92465.00
2024-03-28T02:42:17.428Z,92466.00
2024-03-28T02:43:17.459Z,92469.00
2024-03-28T02:44:17.497Z,92467.00
2024-03-28T02:45:17.523Z,92471.00
2024-03-28T02:46:17.576Z,92472.00
2024-03-28T02:47:17.606Z,92470.00
2024-03-28T02:48:17.674Z,92471.00
2024-03-28T02:49:17.694Z,92473.00
2024-03-28T02:50:17.752Z,92474.00
2024-03-28T02:51:17.768Z,92475.00
2024-03-28T02:52:17.844Z,92475.00
2024-03-28T02:53:17.853Z,92475.00
2024-03-28T02:54:17.866Z,92473.00
2024-03-28T02:55:17.917Z,92473.00
2024-03-28T02:56:17.963Z,92480.00
2024-03-28T02:57:18.030Z,92487.00
2024-03-28T02:58:18.054Z,92472.00
2024-03-28T02:59:18.099Z,92464.00
2024-03-28T03:00:18.167Z,92473.00
2024-03-28T03:01:18.221Z,92470.00
2024-03-28T03:02:18.213Z,92467.00
2024-03-28T03:03:18.259Z,92467.00
2024-03-28T03:04:18.342Z,92468.00
2024-03-28T03:05:18.351Z,92473.00
2024-03-28T03:06:18.380Z,92476.00
2024-03-28T03:07:18.464Z,92478.00
2024-03-28T03:08:18.493Z,92480.00
2024-03-28T03:09:18.510Z,92474.00
2024-03-28T03:10:18.597Z,92480.00
2024-03-28T03:11:18.649Z,92491.00
2024-03-28T03:12:18.683Z,92488.00
2024-03-28T03:13:18.728Z,92480.00
2024-03-28T03:14:18.799Z,92480.00
2024-03-28T03:15:18.813Z,92482.00
2024-03-28T03:16:18.893Z,92488.00
2024-03-28T03:17:18.913Z,92488.00
2024-03-28T03:18:18.948Z,92493.00
2024-03-28T03:19:18.998Z,92485.00
2024-03-28T03:20:19.044Z,92483.00
2024-03-28T03:21:19.088Z,92480.00
2024-03-28T03:22:19.100Z,92473.00
2024-03-28T03:23:19.155Z,92476.00
2024-03-28T03:24:19.242Z,92476.00
2024-03-28T03:25:19.335Z,92477.00
2024-03-28T03:26:19.319Z,92478.00
2024-03-28T03:27:19.366Z,92471.00
2024-03-28T03:28:19.445Z,92457.00
2024-03-28T03:29:19.442Z,92473.00
2024-03-28T03:30:19.464Z,92468.00
2024-03-28T03:31:19.644Z,92471.00
2024-03-28T03:32:19.622Z,92469.00
2024-03-28T03:33:19.642Z,92464.00
2024-03-28T03:34:19.732Z,92458.00
2024-03-28T03:35:19.748Z,92464.00
2024-03-28T03:36:19.774Z,92438.00
2024-03-28T03:37:19.784Z,92448.00
2024-03-28T03:38:19.836Z,92471.00
2024-03-28T03:39:19.864Z,92483.00
2024-03-28T03:40:19.937Z,92481.00
2024-03-28T03:41:19.956Z,92478.00
2024-03-28T03:42:19.998Z,92462.00
2024-03-28T03:43:20.050Z,92459.00
2024-03-28T03:44:20.045Z,92481.00
2024-03-28T03:45:20.117Z,92475.00
2024-03-28T03:46:20.172Z,92471.00
2024-03-28T03:47:20.161Z,92463.00
2024-03-28T03:48:20.191Z,92469.00
2024-03-28T03:49:20.240Z,92477.00
2024-03-28T03:50:20.241Z,92478.00
2024-03-28T03:51:20.287Z,92474.00
2024-03-28T03:52:20.386Z,92477.00
2024-03-28T03:53:20.420Z,92477.00
2024-03-28T03:54:20.448Z,92485.00
2024-03-28T03:55:20.514Z,92476.00
2024-03-28T03:56:20.515Z,92479.00
2024-03-28T03:57:20.591Z,92483.00
2024-03-28T03:58:20.698Z,92484.00
2024-03-28T03:59:20.719Z,92492.00
2024-03-28T04:00:20.740Z,92493.00
2024-03-28T04:01:20.792Z,92496.00
2024-03-28T04:02:20.814Z,92495.00
2024-03-28T04:03:20.855Z,92488.00
2024-03-28T04:04:20.913Z,92497.00
2024-03-28T04:05:20.950Z,92488.00
2024-03-28T04:06:20.993Z,92484.00
2024-03-28T04:07:21.061Z,92505.00
2024-03-28T04:08:21.068Z,92506.00
2024-03-28T04:09:21.138Z,92505.00
2024-03-28T04:10:21.181Z,92504.00
2024-03-28T04:11:21.190Z,92495.00
2024-03-28T04:12:21.238Z,92498.00
2024-03-28T04:13:21.280Z,92503.00
2024-03-28T04:14:21.315Z,92515.00
2024-03-28T04:15:21.271Z,92498.00
2024-03-28T04:16:21.392Z,92504.00
2024-03-28T04:17:21.361Z,92510.00
2024-03-28T04:18:21.435Z,92500.00
2024-03-28T04:19:21.480Z,92497.00
2024-03-28T04:20:21.491Z,92514.00
2024-03-28T04:21:21.553Z,92506.00
2024-03-28T04:22:21.585Z,92495.00
2024-03-28T04:23:21.598Z,92503.00
2024-03-28T04:24:21.636Z,92515.00
2024-03-28T04:25:21.751Z,92514.00
2024-03-28T04:26:21.748Z,92533.00
2024-03-28T04:27:21.809Z,92529.00
2024-03-28T04:28:21.871Z,92520.00
2024-03-28T04:29:21.867Z,92531.00
2024-03-28T04:30:21.886Z,92523.00
2024-03-28T04:31:21.974Z,92522.00
2024-03-28T04:32:21.965Z,92523.00
2024-03-28T04:33:22.056Z,92525.00
2024-03-28T04:34:22.078Z,92524.00
2024-03-28T04:35:22.097Z,92525.00
2024-03-28T04:36:22.171Z,92526.00
2024-03-28T04:37:22.225Z,92518.00
2024-03-28T04:38:22.264Z,92525.00
2024-03-28T04:39:22.247Z,92534.00
2024-03-28T04:40:22.323Z,92537.00
2024-03-28T04:41:22.297Z,92535.00
2024-03-28T04:42:22.335Z,92547.00
2024-03-28T04:43:22.396Z,92538.00
2024-03-28T04:44:22.407Z,92524.00
2024-03-28T04:45:22.520Z,92519.00
2024-03-28T04:46:22.522Z,92521.00
2024-03-28T04:47:22.527Z,92526.00
2024-03-28T04:48:22.577Z,92523.00
2024-03-28T04:49:22.676Z,92533.00
2024-03-28T04:50:22.617Z,92535.00
2024-03-28T04:51:22.664Z,92547.00
2024-03-28T04:52:22.669Z,92535.00
2024-03-28T04:53:22.707Z,92543.00
2024-03-28T04:54:22.789Z,92550.00
2024-03-28T04:55:24.546Z,92534.00
2024-03-28T04:56:22.821Z,92529.00
2024-03-28T04:57:30.353Z,92536.00
2024-03-28T04:58:30.376Z,92536.00
2024-03-28T04:59:30.541Z,92535.00
2024-03-28T05:00:30.660Z,92544.00
2024-03-28T05:01:30.782Z,92524.00
2024-03-28T05:02:30.968Z,92527.00
2024-03-28T05:03:31.133Z,92533.00
2024-03-28T05:04:31.237Z,92542.00
2024-03-28T05:05:31.350Z,92538.00
2024-03-28T05:06:31.547Z,92549.00
2024-03-28T05:07:31.707Z,92544.00
2024-03-28T05:08:31.914Z,92546.00
2024-03-28T05:09:31.885Z,92543.00
2024-03-28T05:10:31.927Z,92543.00
2024-03-28T05:11:32.005Z,92540.00
2024-03-28T05:12:31.901Z,92534.00
2024-03-28T05:13:31.911Z,92538.00
2024-03-28T05:14:31.912Z,92545.00
2024-03-28T05:15:31.915Z,92559.00
2024-03-28T05:16:31.939Z,92547.00
2024-03-28T05:17:31.925Z,92543.00
2024-03-28T05:18:31.941Z,92532.00
2024-03-28T05:19:31.915Z,92541.00
2024-03-28T05:20:31.917Z,92540.00
2024-03-28T05:21:31.908Z,92542.00
2024-03-28T05:22:31.931Z,92545.00
2024-03-28T05:23:31.916Z,92548.00
2024-03-28T05:24:31.933Z,92550.00
2024-03-28T05:25:31.928Z,92530.00
2024-03-28T05:26:31.978Z,92522.00
2024-03-28T05:27:31.991Z,92529.00
2024-03-28T05:28:32.104Z,92531.00
2024-03-28T05:29:32.158Z,92531.00
2024-03-28T05:30:32.146Z,92530.00
2024-03-28T05:31:32.181Z,92526.00
2024-03-28T05:32:32.276Z,92534.00
2024-03-28T05:33:32.286Z,92535.00
2024-03-28T05:34:32.339Z,92537.00
2024-03-28T05:35:32.346Z,92539.00
2024-03-28T05:36:32.387Z,92547.00
2024-03-28T05:37:32.457Z,92538.00
2024-03-28T05:38:32.490Z,92543.00
2024-03-28T05:39:32.576Z,92545.00
2024-03-28T05:40:32.595Z,92546.00
2024-03-28T05:41:32.621Z,92537.00
2024-03-28T05:42:32.660Z,92544.00
2024-03-28T05:43:32.709Z,92538.00
2024-03-28T05:44:32.729Z,92549.00
2024-03-28T05:45:32.779Z,92562.00
2024-03-28T05:46:32.863Z,92559.00
2024-03-28T05:47:32.860Z,92537.00
2024-03-28T05:48:32.936Z,92539.00
2024-03-28T05:49:32.961Z,92548.00
2024-03-28T05:50:32.999Z,92560.00
2024-03-28T05:51:33.081Z,92548.00
2024-03-28T05:52:33.076Z,92543.00
2024-03-28T05:53:33.133Z,92553.00
2024-03-28T05:54:33.162Z,92549.00
2024-03-28T05:55:33.333Z,92553.00
2024-03-28T05:56:33.291Z,92555.00
2024-03-28T05:57:33.362Z,92544.00
2024-03-28T05:58:33.347Z,92541.00
2024-03-28T05:59:33.443Z,92556.00
2024-03-28T06:00:33.495Z,92565.00
2024-03-28T06:01:33.574Z,92561.00
2024-03-28T06:02:33.493Z,92561.00
2024-03-28T06:03:33.588Z,92549.00
2024-03-28T06:04:33.620Z,92562.00
2024-03-28T06:05:33.666Z,92568.00
2024-03-28T06:06:33.693Z,92554.00
2024-03-28T06:07:33.710Z,92563.00
2024-03-28T06:08:33.744Z,92568.00
2024-03-28T06:09:33.793Z,92566.00
2024-03-28T06:10:33.867Z,92555.00
2024-03-28T06:11:33.873Z,92554.00
2024-03-28T06:12:33.927Z,92558.00
2024-03-28T06:13:33.924Z,92562.00
2024-03-28T06:14:33.950Z,92550.00
2024-03-28T06:15:34.030Z,92544.00
2024-03-28T06:16:34.429Z,92550.00
2024-03-28T06:17:34.074Z,92553.00
2024-03-28T06:18:34.096Z,92554.00
2024-03-28T06:19:34.161Z,92560.00
2024-03-28T06:20:34.200Z,92559.00
2024-03-28T06:21:34.275Z,92568.00
2024-03-28T06:22:34.371Z,92570.00
2024-03-28T06:23:34.272Z,92559.00
2024-03-28T06:24:34.315Z,92552.00
2024-03-28T06:25:34.382Z,92562.00
2024-03-28T06:26:34.474Z,92572.00
2024-03-28T06:27:34.497Z,92567.00
2024-03-28T06:28:34.469Z,92562.00
2024-03-28T06:29:34.543Z,92576.00
2024-03-28T06:30:34.599Z,92576.00
2024-03-28T06:31:34.634Z,92584.00
2024-03-28T06:32:34.731Z,92594.00
2024-03-28T06:33:34.754Z,92597.00
2024-03-28T06:34:34.800Z,92591.00
2024-03-28T06:35:34.792Z,92594.00
2024-03-28T06:36:34.837Z,92585.00
2024-03-28T06:37:34.871Z,92575.00
2024-03-28T06:38:34.912Z,92590.00
2024-03-28T06:39:34.985Z,92603.00
2024-03-28T06:40:34.952Z,92591.00
2024-03-28T06:41:35.011Z,92579.00
2024-03-28T06:42:35.142Z,92582.00
2024-03-28T06:43:35.068Z,92590.00
2024-03-28T06:44:35.167Z,92596.00
2024-03-28T06:45:35.173Z,92591.00
2024-03-28T06:46:35.199Z,92598.00
2024-03-28T06:47:35.239Z,92597.00
2024-03-28T06:48:35.281Z,92583.00
2024-03-28T06:49:35.331Z,92580.00
2024-03-28T06:50:35.358Z,92574.00
2024-03-28T06:51:35.398Z,92564.00
2024-03-28T06:52:35.489Z,92565.00
2024-03-28T06:53:35.534Z,92564.00
2024-03-28T06:54:35.568Z,92554.00
2024-03-28T06:55:35.599Z,92560.00
2024-03-28T06:56:35.643Z,92562.00
2024-03-28T06:57:35.668Z,92554.00
2024-03-28T06:58:35.680Z,92560.00
2024-03-28T06:59:35.726Z,92559.00
2024-03-28T07:00:35.780Z,92557.00
2024-03-28T07:01:35.828Z,92544.00
2024-03-28T07:02:35.887Z,92541.00
2024-03-28T07:03:35.896Z,92554.00
2024-03-28T07:04:35.927Z,92557.00
2024-03-28T07:05:35.962Z,92546.00
2024-03-28T07:06:36.009Z,92535.00
2024-03-28T07:07:36.040Z,92523.00
2024-03-28T07:08:36.112Z,92536.00
2024-03-28T07:09:36.136Z,92547.00
2024-03-28T07:10:36.197Z,92539.00
2024-03-28T07:11:36.258Z,92526.00
2024-03-28T07:12:36.267Z,92519.00
2024-03-28T07:13:36.316Z,92521.00
2024-03-28T07:14:36.350Z,92520.00
2024-03-28T07:15:36.393Z,92535.00
2024-03-28T07:16:36.439Z,92526.00
2024-03-28T07:17:36.478Z,92499.00
2024-03-28T07:18:36.573Z,92496.00
2024-03-28T07:19:36.556Z,92540.00
2024-03-28T07:20:36.612Z,92526.00
2024-03-28T07:21:36.617Z,92518.00
2024-03-28T07:22:36.673Z,92503.00
2024-03-28T07:23:36.706Z,92506.00
2024-03-28T07:24:36.761Z,92520.00
2024-03-28T07:25:36.778Z,92512.00
2024-03-28T07:26:37.025Z,92494.00
2024-03-28T07:27:36.859Z,92494.00
2024-03-28T07:28:36.920Z,92532.00
2024-03-28T07:29:36.977Z,92527.00
2024-03-28T07:30:37.045Z,92529.00
2024-03-28T07:31:37.039Z,92513.00
2024-03-28T07:32:37.090Z,92527.00
2024-03-28T07:33:37.138Z,92531.00
2024-03-28T07:34:37.151Z,92504.00
2024-03-28T07:35:37.205Z,92509.00
2024-03-28T07:36:37.229Z,92532.00
2024-03-28T07:37:37.279Z,92518.00
2024-03-28T07:38:37.325Z,92514.00
2024-03-28T07:39:37.356Z,92492.00
2024-03-28T07:40:37.405Z,92526.00
2024-03-28T07:41:37.420Z,92501.00
2024-03-28T07:42:37.454Z,92501.00
2024-03-28T07:43:37.519Z,92507.00
2024-03-28T07:44:37.531Z,92495.00
2024-03-28T07:45:37.595Z,92526.00
2024-03-28T07:46:37.609Z,92484.00
2024-03-28T07:47:37.694Z,92494.00
2024-03-28T07:48:37.677Z,92499.00
2024-03-28T07:49:37.708Z,92471.00
2024-03-28T07:50:37.738Z,92476.00
2024-03-28T07:51:37.813Z,92509.00
2024-03-28T07:52:37.887Z,92506.00
2024-03-28T07:53:37.904Z,92526.00
2024-03-28T07:54:37.930Z,92502.00
2024-03-28T07:55:37.960Z,92527.00
2024-03-28T07:56:38.041Z,92538.00
2024-03-28T07:57:38.058Z,92528.00
2024-03-28T07:58:38.143Z,92525.00
2024-03-28T07:59:38.164Z,92527.00
2024-03-28T08:00:38.177Z,92506.00
2024-03-28T08:01:38.250Z,92523.00
2024-03-28T08:02:38.280Z,92522.00
2024-03-28T08:03:39.554Z,92526.00
2024-03-28T08:04:38.371Z,92504.00
2024-03-28T08:05:38.406Z,92526.00
2024-03-28T08:06:38.456Z,92521.00
2024-03-28T08:07:38.502Z,92520.00
2024-03-28T08:08:38.558Z,92521.00
2024-03-28T08:09:38.593Z,92519.00
2024-03-28T08:10:38.629Z,92524.00
2024-03-28T08:11:38.693Z,92520.00
2024-03-28T08:12:38.737Z,92527.00
2024-03-28T08:13:38.757Z,92526.00
2024-03-28T08:14:38.798Z,92515.00
2024-03-28T08:15:38.880Z,92517.00
2024-03-28T08:16:38.934Z,92481.00
2024-03-28T08:17:38.954Z,92503.00
2024-03-28T08:18:38.968Z,92500.00
2024-03-28T08:19:39.009Z,92511.00
2024-03-28T08:20:39.078Z,92501.00
2024-03-28T08:21:39.136Z,92569.00
2024-03-28T08:22:39.165Z,92512.00
2024-03-28T08:23:39.195Z,92490.00
2024-03-28T08:24:39.243Z,92495.00
2024-03-28T08:25:39.313Z,92485.00
2024-03-28T08:26:39.322Z,92512.00
2024-03-28T08:27:39.350Z,92501.00
2024-03-28T08:28:39.392Z,92521.00
2024-03-28T08:29:39.438Z,92482.00
2024-03-28T08:30:39.483Z,92480.00
2024-03-28T08:31:39.499Z,92542.00
2024-03-28T08:32:39.567Z,92521.00
2024-03-28T08:33:39.604Z,92525.00
2024-03-28T08:34:39.622Z,92517.00
2024-03-28T08:35:39.695Z,92514.00
2024-03-28T08:36:39.728Z,92492.00
2024-03-28T08:37:39.763Z,92496.00
2024-03-28T08:38:39.818Z,92507.00
2024-03-28T08:39:39.836Z,92506.00
2024-03-28T08:40:39.862Z,92465.00
2024-03-28T08:41:39.934Z,92496.00
2024-03-28T08:42:39.974Z,92495.00
2024-03-28T08:43:39.999Z,92495.00
2024-03-28T08:44:40.053Z,92514.00
2024-03-28T08:45:40.103Z,92489.00
2024-03-28T08:46:40.130Z,92507.00
2024-03-28T08:47:40.129Z,92488.00
2024-03-28T08:48:40.180Z,92510.00
2024-03-28T08:49:40.229Z,92538.00
2024-03-28T08:50:40.284Z,92488.00
2024-03-28T08:51:40.319Z,92466.00
2024-03-28T08:52:40.358Z,92518.00
2024-03-28T08:53:40.383Z,92499.00
2024-03-28T08:54:40.433Z,92548.00
2024-03-28T08:55:40.463Z,92519.00
2024-03-28T08:56:40.512Z,92507.00
2024-03-28T08:57:40.580Z,92534.00
2024-03-28T08:58:40.649Z,92514.00
2024-03-28T08:59:40.656Z,92504.00
2024-03-28T09:00:40.715Z,92500.00
2024-03-28T09:01:40.778Z,92489.00
2024-03-28T09:02:40.943Z,92525.00
2024-03-28T09:03:40.861Z,92523.00
2024-03-28T09:04:40.910Z,92502.00
2024-03-28T09:05:40.934Z,92499.00
2024-03-28T09:06:40.967Z,92509.00
2024-03-28T09:07:41.000Z,92491.00
2024-03-28T09:08:41.048Z,92501.00
2024-03-28T09:09:41.067Z,92508.00
2024-03-28T09:10:41.156Z,92531.00
2024-03-28T09:11:41.195Z,92520.00
2024-03-28T09:12:41.197Z,92510.00
2024-03-28T09:13:41.254Z,92548.00
2024-03-28T09:14:41.293Z,92489.00
2024-03-28T09:15:41.380Z,92505.00
2024-03-28T09:16:41.406Z,92505.00
2024-03-28T09:17:41.443Z,92533.00
2024-03-28T09:18:41.478Z,92532.00
2024-03-28T09:19:41.528Z,92487.00
2024-03-28T09:20:41.582Z,92517.00
2024-03-28T09:21:41.600Z,92511.00
2024-03-28T09:22:41.652Z,92519.00
2024-03-28T09:23:41.656Z,92528.00
2024-03-28T09:24:41.694Z,92523.00
2024-03-28T09:25:41.729Z,92510.00
2024-03-28T09:26:44.786Z,92504.00
2024-03-28T09:27:41.792Z,92511.00
2024-03-28T09:28:41.822Z,92506.00
2024-03-28T09:29:41.820Z,92531.00
2024-03-28T09:30:41.812Z,92519.00
2024-03-28T09:31:41.842Z,92502.00
2024-03-28T09:32:41.829Z,92520.00
2024-03-28T09:33:41.803Z,92566.00
2024-03-28T09:34:41.823Z,92606.00
2024-03-28T09:35:41.831Z,92546.00
2024-03-28T09:36:41.836Z,92555.00
2024-03-28T09:37:41.808Z,92521.00
2024-03-28T09:38:41.823Z,92481.00
2024-03-28T09:39:41.820Z,92488.00
2024-03-28T09:40:41.824Z,92500.00
2024-03-28T09:41:41.842Z,92484.00
2024-03-28T09:42:41.839Z,92519.00
2024-03-28T09:43:41.835Z,92542.00
2024-03-28T09:44:41.823Z,92603.00
2024-03-28T09:45:41.825Z,92544.00
2024-03-28T09:46:41.829Z,92516.00
2024-03-28T09:47:41.889Z,92514.00
2024-03-28T09:48:41.839Z,92510.00
2024-03-28T09:49:41.835Z,92537.00
2024-03-28T09:50:41.843Z,92543.00
2024-03-28T09:51:41.843Z,92541.00
2024-03-28T09:52:41.834Z,92531.00
2024-03-28T09:53:41.841Z,92549.00
2024-03-28T09:54:41.857Z,92531.00
2024-03-28T09:55:41.872Z,92534.00
2024-03-28T09:56:41.846Z,92574.00
2024-03-28T09:57:41.865Z,92574.00
2024-03-28T09:58:41.843Z,92566.00
2024-03-28T09:59:41.867Z,92551.00
2024-03-28T10:00:41.888Z,92539.00
2024-03-28T10:01:41.849Z,92568.00
2024-03-28T10:02:41.861Z,92588.00
2024-03-28T10:03:41.886Z,92580.00
2024-03-28T10:04:41.862Z,92564.00
2024-03-28T10:05:41.880Z,92544.00
2024-03-28T10:06:41.847Z,92579.00
2024-03-28T10:07:41.883Z,92535.00
2024-03-28T10:08:41.882Z,92543.00
2024-03-28T10:09:41.843Z,92543.00
2024-03-28T10:10:41.864Z,92546.00
2024-03-28T10:11:41.848Z,92587.00
2024-03-28T10:12:41.848Z,92560.00
2024-03-28T10:13:41.871Z,92533.00
2024-03-28T10:14:41.870Z,92558.00
2024-03-28T10:15:41.875Z,92526.00
2024-03-28T10:16:41.884Z,92542.00
2024-03-28T10:17:41.911Z,92629.00
2024-03-28T10:18:41.874Z,92569.00
2024-03-28T10:19:41.903Z,92537.00
2024-03-28T10:20:41.913Z,92532.00
2024-03-28T10:21:41.941Z,92562.00
2024-03-28T10:22:41.895Z,92568.00
2024-03-28T10:23:41.887Z,92643.00
2024-03-28T10:24:41.891Z,92573.00
2024-03-28T10:25:41.920Z,92521.00
2024-03-28T10:26:41.897Z,92539.00
2024-03-28T10:27:41.903Z,92552.00
2024-03-28T10:28:41.930Z,92574.00
2024-03-28T10:29:41.914Z,92563.00
2024-03-28T10:30:41.926Z,92567.00
2024-03-28T10:31:41.928Z,92500.00
2024-03-28T10:32:41.912Z,92573.00
2024-03-28T10:33:41.936Z,92540.00
2024-03-28T10:34:42.490Z,92550.00
2024-03-28T10:35:43.009Z,92606.00
2024-03-28T10:36:42.062Z,92572.00
2024-03-28T10:37:54.708Z,92618.00
2024-03-28T10:38:43.128Z,92539.00
2024-03-28T10:39:42.117Z,92609.00
2024-03-28T10:40:42.161Z,92580.00
2024-03-28T10:41:42.132Z,92561.00
2024-03-28T10:42:42.112Z,92569.00
2024-03-28T10:43:42.119Z,92529.00
2024-03-28T10:44:42.113Z,92570.00
2024-03-28T10:45:42.122Z,92574.00
2024-03-28T10:46:42.124Z,92566.00
2024-03-28T10:47:42.136Z,92563.00
2024-03-28T10:48:42.139Z,92564.00
2024-03-28T10:49:44.124Z,92549.00
2024-03-28T10:50:42.164Z,92594.00
2024-03-28T10:51:42.154Z,92632.00
2024-03-28T10:52:42.145Z,92552.00
2024-03-28T10:53:42.134Z,92563.00
2024-03-28T10:54:42.142Z,92575.00
2024-03-28T10:55:42.159Z,92582.00
2024-03-28T10:56:42.193Z,92567.00
2024-03-28T10:57:42.157Z,92582.00
2024-03-28T10:58:42.151Z,92557.00
2024-03-28T10:59:42.145Z,92562.00
2024-03-28T11:00:42.208Z,92629.00
2024-03-28T11:01:42.180Z,92613.00
2024-03-28T11:02:42.178Z,92555.00
2024-03-28T11:03:42.170Z,92564.00
2024-03-28T11:04:42.166Z,92579.00
2024-03-28T11:05:42.186Z,92565.00
2024-03-28T11:06:42.177Z,92599.00
2024-03-28T11:07:42.182Z,92603.00
2024-03-28T11:08:42.205Z,92580.00
2024-03-28T11:09:42.181Z,92540.00
2024-03-28T11:10:42.180Z,92572.00
2024-03-28T11:11:42.183Z,92522.00
2024-03-28T11:12:42.186Z,92568.00
2024-03-28T11:13:42.186Z,92626.00
2024-03-28T11:14:42.198Z,92565.00
2024-03-28T11:15:42.205Z,92579.00
2024-03-28T11:16:42.210Z,92589.00
2024-03-28T11:17:42.220Z,92600.00
2024-03-28T11:18:42.249Z,92617.00
2024-03-28T11:19:42.300Z,92570.00
2024-03-28T11:20:42.338Z,92577.00
2024-03-28T11:21:42.336Z,92576.00
2024-03-28T11:22:42.397Z,92607.00
2024-03-28T11:23:42.390Z,92559.00
2024-03-28T11:24:42.460Z,92553.00
2024-03-28T11:25:42.495Z,92555.00
2024-03-28T11:26:42.521Z,92558.00
2024-03-28T11:27:42.528Z,92571.00
2024-03-28T11:28:42.565Z,92546.00
2024-03-28T11:29:42.599Z,92570.00
2024-03-28T11:30:42.649Z,92570.00
2024-03-28T11:31:45.460Z,92551.00
2024-03-28T11:32:42.741Z,92574.00
2024-03-28T11:33:42.658Z,92554.00
2024-03-28T11:34:42.667Z,92568.00
2024-03-28T11:35:42.678Z,92563.00
2024-03-28T11:36:42.716Z,92574.00
2024-03-28T11:37:42.742Z,92573.00
2024-03-28T11:38:42.708Z,92601.00
2024-03-28T11:39:42.697Z,92583.00
2024-03-28T11:40:42.703Z,92595.00
2024-03-28T11:41:42.701Z,92567.00
2024-03-28T11:42:46.742Z,92585.00
2024-03-28T11:43:42.712Z,92606.00
2024-03-28T11:44:42.696Z,92573.00